createdAt,value
2022-10-12T00:02:14.880Z,100.00
2022-10-12T00:04:43.774Z,100.00
2022-10-12T00:07:13.944Z,100.00
2022-10-12T00:09:42.265Z,100.00
2022-10-12T00:12:10.498Z,100.00
2022-10-12T00:14:39.753Z,100.00
2022-10-12T00:17:09.833Z,100.00
2022-10-12T00:19:39.464Z,100.00
2022-10-12T00:22:08.311Z,100.00
2022-10-12T00:24:42.953Z,100.00
2022-10-12T00:27:12.123Z,100.00
2022-10-12T00:29:40.397Z,100.00
2022-10-12T00:32:09.624Z,100.00
2022-10-12T00:34:38.180Z,100.00
2022-10-12T00:37:06.928Z,100.00
2022-10-12T00:39:39.700Z,100.00
2022-10-12T00:42:08.106Z,100.00
2022-10-12T00:44:40.856Z,100.00
2022-10-12T00:47:18.803Z,100.00
2022-10-12T00:49:53.035Z,100.00
2022-10-12T00:52:24.782Z,100.00
2022-10-12T00:54:59.128Z,100.00
2022-10-12T00:57:27.768Z,100.00
2022-10-12T00:59:59.864Z,100.00
2022-10-12T01:02:31.509Z,100.00
2022-10-12T01:05:02.368Z,100.00
2022-10-12T01:07:30.554Z,100.00
2022-10-12T01:10:02.316Z,100.00
2022-10-12T01:12:31.019Z,100.00
2022-10-12T01:14:59.756Z,100.00
2022-10-12T01:17:39.794Z,100.00
2022-10-12T01:20:37.469Z,100.00
2022-10-12T01:23:35.757Z,100.00
2022-10-12T01:26:38.870Z,100.00
2022-10-12T01:29:24.697Z,100.00
2022-10-12T01:32:00.561Z,100.00
2022-10-12T01:34:36.298Z,100.00
2022-10-12T01:37:12.685Z,100.00
2022-10-12T01:39:47.438Z,100.00
2022-10-12T01:42:21.876Z,100.00
2022-10-12T01:44:50.435Z,100.00
2022-10-12T01:47:21.159Z,100.00
2022-10-12T01:49:49.891Z,100.00
2022-10-12T01:52:27.408Z,100.00
2022-10-12T01:55:10.804Z,100.00
2022-10-12T01:57:48.744Z,100.00
2022-10-12T02:00:19.943Z,100.00
2022-10-12T02:03:00.045Z,100.00
2022-10-12T02:05:37.227Z,100.00
2022-10-12T02:08:15.615Z,100.00
2022-10-12T02:10:48.876Z,100.00
2022-10-12T02:13:20.920Z,100.00
2022-10-12T02:15:50.299Z,100.00
2022-10-12T02:18:23.029Z,100.00
2022-10-12T02:20:56.187Z,100.00
2022-10-12T02:23:27.044Z,100.00
2022-10-12T02:25:57.833Z,100.00
2022-10-12T02:28:31.398Z,100.00
2022-10-12T02:31:04.313Z,100.00
2022-10-12T02:33:41.979Z,100.00
2022-10-12T02:36:14.705Z,100.00
2022-10-12T02:38:48.681Z,100.00
2022-10-12T02:41:23.049Z,100.00
2022-10-12T02:43:55.954Z,100.00
2022-10-12T02:46:27.262Z,100.00
2022-10-12T02:48:59.266Z,100.00
2022-10-12T02:51:30.312Z,100.00
2022-10-12T02:53:58.680Z,100.00
2022-10-12T02:56:27.353Z,100.00
2022-10-12T02:58:55.992Z,100.00
2022-10-12T03:01:24.353Z,100.00
2022-10-12T03:03:53.020Z,100.00
2022-10-12T03:06:24.173Z,100.00
2022-10-12T03:08:55.560Z,100.00
2022-10-12T03:11:24.162Z,100.00
2022-10-12T03:13:54.098Z,100.00
2022-10-12T03:16:22.869Z,100.00
2022-10-12T03:18:51.908Z,100.00
2022-10-12T03:21:21.537Z,100.00
2022-10-12T03:23:51.378Z,100.00
2022-10-12T03:26:20.117Z,100.00
2022-10-12T03:28:48.556Z,100.00
2022-10-12T03:31:17.199Z,100.00
2022-10-12T03:33:47.191Z,100.00
2022-10-12T03:36:16.109Z,100.00
2022-10-12T03:38:44.546Z,100.00
2022-10-12T03:41:14.356Z,100.00
2022-10-12T03:43:42.872Z,100.00
2022-10-12T03:46:11.088Z,100.00
2022-10-12T03:48:39.415Z,100.00
2022-10-12T03:51:08.135Z,100.00
2022-10-12T03:53:40.688Z,100.00
2022-10-12T03:56:14.499Z,100.00
2022-10-12T03:58:42.623Z,100.00
2022-10-12T04:01:10.984Z,100.00
2022-10-12T04:03:39.384Z,100.00
2022-10-12T04:06:08.834Z,100.00
2022-10-12T04:08:40.165Z,100.00
2022-10-12T04:11:08.937Z,100.00
2022-10-12T04:13:38.851Z,100.00
2022-10-12T04:16:09.168Z,100.00
2022-10-12T04:18:38.302Z,100.00
2022-10-12T04:21:11.180Z,100.00
2022-10-12T04:23:41.129Z,100.00
2022-10-12T04:26:09.664Z,100.00
2022-10-12T04:28:40.295Z,100.00
2022-10-12T04:31:08.841Z,100.00
2022-10-12T04:33:37.328Z,100.00
2022-10-12T04:36:06.066Z,100.00
2022-10-12T04:38:34.428Z,100.00
2022-10-12T04:41:02.641Z,100.00
2022-10-12T04:43:30.957Z,100.00
2022-10-12T04:46:02.025Z,100.00
2022-10-12T04:48:30.504Z,100.00
2022-10-12T04:51:01.261Z,100.00
2022-10-12T04:53:29.771Z,100.00
2022-10-12T04:55:58.119Z,100.00
2022-10-12T04:58:26.352Z,100.00
2022-10-12T05:00:54.732Z,100.00
2022-10-12T05:03:25.286Z,100.00
2022-10-12T05:05:53.902Z,100.00
2022-10-12T05:08:22.097Z,100.00
2022-10-12T05:10:50.631Z,100.00
2022-10-12T05:13:19.081Z,100.00
2022-10-12T05:15:47.445Z,100.00
2022-10-12T05:18:15.690Z,100.00
2022-10-12T05:20:45.963Z,100.00
2022-10-12T05:23:14.424Z,100.00
2022-10-12T05:25:45.191Z,100.00
2022-10-12T05:28:15.361Z,100.00
2022-10-12T05:30:45.945Z,100.00
2022-10-12T05:33:15.427Z,100.00
2022-10-12T05:35:48.744Z,100.00
2022-10-12T05:38:19.467Z,100.00
2022-10-12T05:40:48.398Z,100.00
2022-10-12T05:43:17.622Z,100.00
2022-10-12T05:45:48.016Z,100.00
2022-10-12T05:48:16.377Z,100.00
2022-10-12T05:50:46.128Z,100.00
2022-10-12T05:53:15.306Z,100.00
2022-10-12T05:55:53.492Z,100.00
2022-10-12T05:58:22.261Z,100.00
2022-10-12T06:00:50.650Z,100.00
2022-10-12T06:03:21.090Z,100.00
2022-10-12T06:05:52.910Z,100.00
2022-10-12T06:08:21.273Z,100.00
2022-10-12T06:10:55.841Z,100.00
2022-10-12T06:13:24.209Z,100.00
2022-10-12T06:15:53.269Z,100.00
2022-10-12T06:18:21.451Z,100.00
2022-10-12T06:20:56.542Z,100.00
2022-10-12T06:23:38.661Z,100.00
2022-10-12T06:26:07.772Z,100.00
2022-10-12T06:28:36.127Z,100.00
2022-10-12T06:31:04.592Z,100.00
2022-10-12T06:33:32.861Z,100.00
2022-10-12T06:36:01.222Z,100.00
2022-10-12T06:38:29.995Z,100.00
2022-10-12T06:40:59.852Z,100.00
2022-10-12T06:43:28.378Z,100.00
2022-10-12T06:46:01.463Z,100.00
2022-10-12T06:48:29.799Z,100.00
2022-10-12T06:50:58.405Z,100.00
2022-10-12T06:53:28.976Z,100.00
2022-10-12T06:55:57.228Z,100.00
2022-10-12T06:58:27.135Z,100.00
2022-10-12T07:00:56.872Z,100.00
2022-10-12T07:03:25.467Z,100.00
2022-10-12T07:05:53.627Z,100.00
2022-10-12T07:08:22.538Z,100.00
2022-10-12T07:10:59.030Z,100.00
2022-10-12T07:13:30.366Z,100.00
2022-10-12T07:15:58.847Z,100.00
2022-10-12T07:18:28.580Z,100.00
2022-10-12T07:20:59.985Z,100.00
2022-10-12T07:23:28.843Z,100.00
2022-10-12T07:25:57.663Z,100.00
2022-10-12T07:28:28.760Z,100.00
2022-10-12T07:31:03.377Z,100.00
2022-10-12T07:33:35.668Z,100.00
2022-10-12T07:36:21.865Z,100.00
2022-10-12T07:38:52.987Z,100.00
2022-10-12T07:41:21.628Z,100.00
2022-10-12T07:43:50.357Z,100.00
2022-10-12T07:46:20.572Z,100.00
2022-10-12T07:48:50.550Z,100.00
2022-10-12T07:51:19.646Z,100.00
2022-10-12T07:53:48.915Z,100.00
2022-10-12T07:56:18.008Z,100.00
2022-10-12T07:58:51.108Z,100.00
2022-10-12T08:01:22.339Z,100.00
2022-10-12T08:03:51.391Z,100.00
2022-10-12T08:06:22.889Z,100.00
2022-10-12T08:08:51.550Z,100.00
2022-10-12T08:11:20.983Z,100.00
2022-10-12T08:13:51.781Z,100.00
2022-10-12T08:16:22.436Z,100.00
2022-10-12T08:18:53.385Z,100.00
2022-10-12T08:21:22.395Z,100.00
2022-10-12T08:23:50.681Z,100.00
2022-10-12T08:26:19.132Z,100.00
2022-10-12T08:28:47.399Z,100.00
2022-10-12T08:31:18.006Z,100.00
2022-10-12T08:33:47.855Z,100.00
2022-10-12T08:36:17.299Z,100.00
2022-10-12T08:38:48.774Z,100.00
2022-10-12T08:41:37.860Z,100.00
2022-10-12T08:44:23.301Z,100.00
2022-10-12T08:46:56.497Z,100.00
2022-10-12T08:49:29.976Z,100.00
2022-10-12T08:52:01.426Z,100.00
2022-10-12T08:54:38.063Z,100.00
2022-10-12T08:57:06.784Z,100.00
2022-10-12T08:59:35.203Z,100.00
2022-10-12T09:02:16.080Z,100.00
2022-10-12T09:04:58.573Z,100.00
2022-10-12T09:07:31.194Z,100.00
2022-10-12T09:10:12.773Z,100.00
2022-10-12T09:12:51.057Z,100.00
2022-10-12T09:15:24.760Z,100.00
2022-10-12T09:17:55.105Z,100.00
2022-10-12T09:20:30.135Z,100.00
2022-10-12T09:23:03.668Z,100.00
2022-10-12T09:25:34.125Z,100.00
2022-10-12T09:28:16.077Z,100.00
2022-10-12T09:30:55.379Z,100.00
2022-10-12T09:33:29.313Z,100.00
2022-10-12T09:35:59.769Z,100.00
2022-10-12T09:38:30.461Z,100.00
2022-10-12T09:41:00.947Z,100.00
2022-10-12T09:43:29.759Z,100.00
2022-10-12T09:46:03.061Z,100.00
2022-10-12T09:48:31.245Z,100.00
2022-10-12T09:51:04.491Z,100.00
2022-10-12T09:53:36.345Z,100.00
2022-10-12T09:56:10.766Z,100.00
2022-10-12T09:58:55.111Z,100.00
2022-10-12T10:01:27.724Z,100.00
2022-10-12T10:04:11.370Z,100.00
2022-10-12T10:06:43.295Z,100.00
2022-10-12T10:09:33.771Z,100.00
2022-10-12T10:12:15.273Z,100.00
2022-10-12T10:14:45.757Z,100.00
2022-10-12T10:17:26.476Z,100.00
2022-10-12T10:19:56.666Z,100.00
2022-10-12T10:22:27.455Z,100.00
2022-10-12T10:25:00.383Z,100.00
2022-10-12T10:27:37.912Z,100.00
2022-10-12T10:30:36.442Z,100.00
2022-10-12T10:33:22.863Z,100.00
2022-10-12T10:36:02.481Z,100.00
2022-10-12T10:38:47.292Z,100.00
2022-10-12T10:41:20.137Z,100.00
2022-10-12T10:43:50.620Z,100.00
2022-10-12T10:46:25.549Z,100.00
2022-10-12T10:48:58.324Z,100.00
2022-10-12T10:51:48.472Z,100.00
2022-10-12T10:54:29.119Z,100.00
2022-10-12T10:57:04.077Z,100.00
2022-10-12T10:59:41.160Z,100.00
2022-10-12T11:02:27.009Z,100.00
2022-10-12T11:05:02.686Z,100.00
2022-10-12T11:07:39.064Z,100.00
2022-10-12T11:10:25.388Z,100.00
2022-10-12T11:13:01.173Z,100.00
2022-10-12T11:15:36.153Z,100.00
2022-10-12T11:18:17.682Z,100.00
2022-10-12T11:20:53.594Z,100.00
2022-10-12T11:23:39.979Z,100.00
2022-10-12T11:26:20.715Z,100.00
2022-10-12T11:28:49.603Z,100.00
2022-10-12T11:31:23.249Z,100.00
2022-10-12T11:33:54.372Z,100.00
2022-10-12T11:36:26.065Z,100.00
2022-10-12T11:39:02.053Z,100.00
2022-10-12T11:42:09.572Z,100.00
2022-10-12T11:44:44.909Z,100.00
2022-10-12T11:47:23.795Z,100.00
2022-10-12T11:49:59.544Z,100.00
2022-10-12T11:52:45.165Z,100.00
2022-10-12T11:55:55.539Z,100.00
2022-10-12T11:58:48.903Z,100.00
2022-10-12T12:01:38.384Z,100.00
2022-10-12T12:04:40.518Z,100.00
2022-10-12T12:07:30.096Z,100.00
2022-10-12T12:09:58.325Z,100.00
2022-10-12T12:12:29.099Z,100.00
2022-10-12T12:15:06.995Z,100.00
2022-10-12T12:17:36.035Z,100.00
2022-10-12T12:20:26.047Z,100.00
2022-10-12T12:22:57.005Z,100.00
2022-10-12T12:25:33.539Z,100.00
2022-10-12T12:28:17.987Z,100.00
2022-10-12T12:30:58.839Z,100.00
2022-10-12T12:33:33.349Z,100.00
2022-10-12T12:36:04.769Z,100.00
2022-10-12T12:38:39.347Z,100.00
2022-10-12T12:41:11.671Z,100.00
2022-10-12T12:44:01.605Z,100.00
2022-10-12T12:50:33.022Z,100.00
2022-10-12T12:53:07.546Z,100.00
2022-10-12T12:55:49.177Z,100.00
2022-10-12T12:58:31.131Z,100.00
2022-10-12T13:01:29.157Z,100.00
2022-10-12T13:04:12.178Z,100.00
2022-10-12T13:07:14.116Z,100.00
2022-10-12T13:09:53.553Z,100.00
2022-10-12T13:12:34.625Z,100.00
2022-10-12T13:15:22.044Z,100.00
2022-10-12T13:18:28.591Z,100.00
2022-10-12T13:21:08.496Z,100.00
2022-10-12T13:23:38.715Z,100.00
2022-10-12T13:26:09.920Z,100.00
2022-10-12T13:28:42.824Z,100.00
2022-10-12T13:31:20.177Z,100.00
2022-10-12T13:33:55.845Z,100.00
2022-10-12T13:36:27.787Z,100.00
2022-10-12T13:39:00.841Z,100.00
2022-10-12T13:41:31.686Z,100.00
2022-10-12T13:44:01.430Z,100.00
2022-10-12T13:46:40.910Z,100.00
2022-10-12T13:49:16.373Z,100.00
2022-10-12T13:51:48.323Z,100.00
2022-10-12T13:54:21.280Z,100.00
2022-10-12T13:56:52.798Z,100.00
2022-10-12T13:59:23.967Z,100.00
2022-10-12T14:01:55.614Z,100.00
2022-10-12T14:04:24.526Z,100.00
2022-10-12T14:06:58.783Z,100.00
2022-10-12T14:09:35.286Z,100.00
2022-10-12T14:12:05.747Z,100.00
2022-10-12T14:14:36.459Z,100.00
2022-10-12T14:17:05.219Z,100.00
2022-10-12T14:19:43.844Z,100.00
2022-10-12T14:22:13.744Z,98.31
2022-10-12T14:24:43.580Z,94.46
2022-10-12T14:27:26.410Z,90.55
2022-10-12T14:29:59.508Z,85.41
2022-10-12T14:32:41.229Z,78.72
2022-10-12T14:35:31.270Z,74.95
2022-10-12T14:37:59.928Z,72.86
2022-10-12T14:40:34.680Z,74.88
2022-10-12T14:43:08.191Z,76.10
2022-10-12T14:45:38.086Z,79.67
2022-10-12T14:48:11.435Z,86.45
2022-10-12T14:50:43.518Z,86.93
2022-10-12T14:53:14.540Z,89.99
2022-10-12T14:55:44.788Z,92.61
2022-10-12T14:58:17.072Z,96.77
2022-10-12T15:00:47.447Z,100.00
2022-10-12T15:03:18.296Z,100.00
2022-10-12T15:05:47.010Z,100.00
2022-10-12T15:08:15.403Z,100.00
2022-10-12T15:10:46.071Z,100.00
2022-10-12T15:13:17.533Z,100.00
2022-10-12T15:15:51.556Z,100.00
2022-10-12T15:18:19.941Z,100.00
2022-10-12T15:20:49.930Z,100.00
2022-10-12T15:23:20.493Z,100.00
2022-10-12T15:25:52.939Z,100.00
2022-10-12T15:28:25.053Z,100.00
2022-10-12T15:33:44.033Z,100.00
2022-10-12T15:36:16.590Z,100.00
2022-10-12T15:38:45.277Z,100.00
2022-10-12T15:41:19.390Z,100.00
2022-10-12T15:43:47.924Z,100.00
2022-10-12T15:46:16.337Z,100.00
2022-10-12T15:48:45.146Z,100.00
2022-10-12T15:51:19.645Z,100.00
2022-10-12T15:53:48.467Z,100.00
2022-10-12T15:56:20.587Z,100.00
2022-10-12T15:58:49.802Z,100.00
2022-10-12T16:01:20.938Z,100.00
2022-10-12T16:03:50.542Z,100.00
2022-10-12T16:06:20.004Z,100.00
2022-10-12T16:08:48.668Z,100.00
2022-10-12T16:11:19.888Z,100.00
2022-10-12T16:13:55.616Z,100.00
2022-10-12T16:16:24.939Z,100.00
2022-10-12T16:18:54.220Z,100.00
2022-10-12T16:21:25.166Z,100.00
2022-10-12T16:23:53.599Z,100.00
2022-10-12T16:26:25.396Z,100.00
2022-10-12T16:28:53.770Z,100.00
2022-10-12T16:31:22.263Z,100.00
2022-10-12T16:33:50.844Z,100.00
2022-10-12T16:36:19.508Z,100.00
2022-10-12T16:38:50.969Z,100.00
2022-10-12T16:41:19.945Z,100.00
2022-10-12T16:43:50.362Z,100.00
2022-10-12T16:46:19.321Z,100.00
2022-10-12T16:48:47.987Z,100.00
2022-10-12T16:51:16.254Z,100.00
2022-10-12T16:53:44.486Z,100.00
2022-10-12T16:56:13.715Z,100.00
2022-10-12T16:58:42.714Z,100.00
2022-10-12T17:01:13.876Z,100.00
2022-10-12T17:03:42.374Z,100.00
2022-10-12T17:06:11.803Z,100.00
2022-10-12T17:08:41.474Z,100.00
2022-10-12T17:11:11.134Z,100.00
2022-10-12T17:13:43.142Z,100.00
2022-10-12T17:16:36.367Z,100.00
2022-10-12T17:19:05.283Z,100.00
2022-10-12T17:21:34.167Z,100.00
2022-10-12T17:24:03.791Z,100.00
2022-10-12T17:26:40.207Z,100.00
2022-10-12T17:29:14.598Z,100.00
2022-10-12T17:31:46.993Z,100.00
2022-10-12T17:34:19.732Z,100.00
2022-10-12T17:36:49.328Z,100.00
2022-10-12T17:39:18.737Z,100.00
2022-10-12T17:41:48.888Z,100.00
2022-10-12T17:44:18.050Z,100.00
2022-10-12T17:46:48.602Z,100.00
2022-10-12T17:49:24.277Z,100.00
2022-10-12T17:51:54.637Z,100.00
2022-10-12T17:54:25.378Z,100.00
2022-10-12T17:56:54.296Z,100.00
2022-10-12T17:59:23.559Z,100.00
2022-10-12T18:01:54.731Z,100.00
2022-10-12T18:04:23.738Z,100.00
2022-10-12T18:06:52.081Z,100.00
2022-10-12T18:09:20.530Z,100.00
2022-10-12T18:11:49.221Z,100.00
2022-10-12T18:14:18.000Z,100.00
2022-10-12T18:16:46.251Z,100.00
2022-10-12T18:19:16.243Z,100.00
2022-10-12T18:21:46.691Z,100.00
2022-10-12T18:24:20.844Z,100.00
2022-10-12T18:26:52.628Z,100.00
2022-10-12T18:29:21.329Z,100.00
2022-10-12T18:31:49.980Z,100.00
2022-10-12T18:34:19.495Z,100.00
2022-10-12T18:36:51.144Z,100.00
2022-10-12T18:39:21.628Z,100.00
2022-10-12T18:41:52.433Z,100.00
2022-10-12T18:44:22.645Z,100.00
2022-10-12T18:46:51.788Z,100.00
2022-10-12T18:49:21.857Z,100.00
2022-10-12T18:51:52.904Z,100.00
2022-10-12T18:54:22.666Z,100.00
2022-10-12T18:56:52.568Z,100.00
2022-10-12T18:59:23.567Z,100.00
2022-10-12T19:01:52.884Z,100.00
2022-10-12T19:04:22.933Z,100.00
2022-10-12T19:06:55.571Z,100.00
2022-10-12T19:09:25.999Z,100.00
2022-10-12T19:11:56.048Z,100.00
2022-10-12T19:14:24.364Z,100.00
2022-10-12T19:16:53.150Z,100.00
2022-10-12T19:19:23.196Z,100.00
2022-10-12T19:21:52.121Z,100.00
2022-10-12T19:24:20.915Z,100.00
2022-10-12T19:26:49.755Z,100.00
2022-10-12T19:29:18.224Z,100.00
2022-10-12T19:31:52.287Z,100.00
2022-10-12T19:34:24.352Z,100.00
2022-10-12T19:36:53.681Z,100.00
2022-10-12T19:39:24.166Z,100.00
2022-10-12T19:41:53.391Z,100.00
2022-10-12T19:44:22.380Z,100.00
2022-10-12T19:46:53.628Z,100.00
2022-10-12T19:49:23.723Z,100.00
2022-10-12T19:51:52.328Z,100.00
2022-10-12T19:54:22.073Z,100.00
2022-10-12T19:56:50.397Z,100.00
2022-10-12T19:59:19.414Z,100.00
2022-10-12T20:01:48.868Z,100.00
2022-10-12T20:04:17.391Z,100.00
2022-10-12T20:06:59.489Z,100.00
2022-10-12T20:09:27.761Z,100.00
2022-10-12T20:11:56.425Z,100.00
2022-10-12T20:14:25.809Z,100.00
2022-10-12T20:16:54.862Z,100.00
2022-10-12T20:19:23.546Z,100.00
2022-10-12T20:21:56.536Z,100.00
2022-10-12T20:24:24.885Z,100.00
2022-10-12T20:26:53.556Z,100.00
2022-10-12T20:29:22.045Z,100.00
2022-10-12T20:31:51.158Z,100.00
2022-10-12T20:34:19.450Z,100.00
2022-10-12T20:36:48.096Z,100.00
2022-10-12T20:39:18.772Z,100.00
2022-10-12T20:41:47.543Z,100.00
2022-10-12T20:44:15.881Z,100.00
2022-10-12T20:46:48.990Z,100.00
2022-10-12T20:49:17.109Z,100.00
2022-10-12T20:51:46.043Z,100.00
2022-10-12T20:54:16.297Z,100.00
2022-10-12T20:56:48.229Z,100.00
2022-10-12T20:59:16.701Z,100.00
2022-10-12T21:01:45.664Z,100.00
2022-10-12T21:04:14.089Z,100.00
2022-10-12T21:06:43.134Z,100.00
2022-10-12T21:09:15.520Z,100.00
2022-10-12T21:11:44.955Z,100.00
2022-10-12T21:14:15.621Z,100.00
2022-10-12T21:16:44.194Z,100.00
2022-10-12T21:19:15.911Z,100.00
2022-10-12T21:21:45.309Z,100.00
2022-10-12T21:24:15.377Z,100.00
2022-10-12T21:26:43.967Z,100.00
2022-10-12T21:29:12.592Z,100.00
2022-10-12T21:31:42.683Z,100.00
2022-10-12T21:34:12.715Z,100.00
2022-10-12T21:36:41.156Z,100.00
2022-10-12T21:39:12.200Z,100.00
2022-10-12T21:41:43.213Z,100.00
2022-10-12T21:44:11.993Z,100.00
2022-10-12T21:46:42.549Z,100.00
2022-10-12T21:49:13.020Z,100.00
2022-10-12T21:51:41.653Z,100.00
2022-10-12T21:54:12.690Z,100.00
2022-10-12T21:56:42.440Z,100.00
2022-10-12T21:59:11.455Z,100.00
2022-10-12T22:01:43.206Z,100.00
2022-10-12T22:04:15.894Z,100.00
2022-10-12T22:06:44.650Z,100.00
2022-10-12T22:09:16.930Z,100.00
2022-10-12T22:11:46.214Z,100.00
2022-10-12T22:14:22.060Z,100.00
2022-10-12T22:16:52.301Z,100.00
2022-10-12T22:19:22.619Z,100.00
2022-10-12T22:22:00.125Z,100.00
2022-10-12T22:24:30.664Z,100.00
2022-10-12T22:26:59.113Z,100.00
2022-10-12T22:29:27.598Z,100.00
2022-10-12T22:31:57.734Z,100.00
2022-10-12T22:34:26.835Z,100.00
2022-10-12T22:36:55.229Z,100.00
2022-10-12T22:39:23.530Z,100.00
2022-10-12T22:41:51.790Z,100.00
2022-10-12T22:44:20.384Z,100.00
2022-10-12T22:46:49.097Z,100.00
2022-10-12T22:49:20.698Z,100.00
2022-10-12T22:51:49.459Z,100.00
2022-10-12T22:54:17.966Z,100.00
2022-10-12T22:56:46.661Z,100.00
2022-10-12T22:59:16.430Z,100.00
2022-10-12T23:01:45.378Z,100.00
2022-10-12T23:04:16.796Z,100.00
2022-10-12T23:06:47.051Z,100.00
2022-10-12T23:09:16.814Z,100.00
2022-10-12T23:11:45.248Z,100.00
2022-10-12T23:14:14.793Z,100.00
2022-10-12T23:16:43.513Z,100.00
2022-10-12T23:19:11.846Z,100.00
2022-10-12T23:21:40.179Z,100.00
2022-10-12T23:24:11.416Z,100.00
2022-10-12T23:26:39.762Z,100.00
2022-10-12T23:29:11.074Z,100.00
2022-10-12T23:31:40.020Z,100.00
2022-10-12T23:34:09.578Z,100.00
2022-10-12T23:36:38.718Z,100.00
2022-10-12T23:39:07.608Z,100.00
2022-10-12T23:41:37.304Z,100.00
2022-10-12T23:44:06.287Z,100.00
2022-10-12T23:46:34.819Z,100.00
2022-10-12T23:49:03.361Z,100.00
2022-10-12T23:51:31.767Z,100.00
2022-10-12T23:54:00.392Z,100.00
2022-10-12T23:56:29.191Z,100.00
2022-10-12T23:58:59.285Z,100.00
